createdAt,value
2017-07-22T00:01:57.861Z,5.90
2017-07-22T00:04:25.628Z,8.23
2017-07-22T00:06:53.368Z,6.57
2017-07-22T00:15:23.712Z,4.32
2017-07-22T00:17:51.324Z,3.00
2017-07-22T00:20:18.888Z,6.80
2017-07-22T00:22:46.759Z,6.05
2017-07-22T00:25:14.311Z,4.32
2017-07-22T00:27:41.876Z,6.68
2017-07-22T00:30:09.451Z,2.60
2017-07-22T00:32:37.794Z,3.95
2017-07-22T00:35:05.338Z,3.65
2017-07-22T00:37:32.957Z,2.47
2017-07-22T00:40:00.500Z,2.72
2017-07-22T00:42:28.055Z,3.40
2017-07-22T00:44:55.790Z,2.85
2017-07-22T00:47:23.369Z,4.18
2017-07-22T00:49:50.915Z,7.05
2017-07-22T00:52:18.497Z,2.55
2017-07-22T00:54:46.052Z,6.35
2017-07-22T00:57:13.630Z,3.75
2017-07-22T00:59:42.189Z,3.60
2017-07-22T01:02:09.774Z,6.82
2017-07-22T01:04:37.338Z,4.62
2017-07-22T01:07:04.928Z,4.30
2017-07-22T01:09:32.491Z,4.72
2017-07-22T01:12:00.048Z,3.08
2017-07-22T01:14:27.655Z,4.10
2017-07-22T01:16:55.209Z,4.90
2017-07-22T01:19:22.772Z,4.18
2017-07-22T01:21:50.500Z,5.72
2017-07-22T01:24:18.062Z,3.05
2017-07-22T01:26:45.610Z,2.95
2017-07-22T01:29:13.367Z,4.50
2017-07-22T01:31:40.921Z,3.15
2017-07-22T01:34:08.478Z,3.55
2017-07-22T01:36:36.068Z,4.97
2017-07-22T01:39:03.645Z,5.80
2017-07-22T01:41:31.217Z,6.62
2017-07-22T01:43:59.592Z,7.45
2017-07-22T01:46:27.157Z,3.60
2017-07-22T01:48:55.513Z,5.85
2017-07-22T01:51:23.125Z,5.00
2017-07-22T01:53:50.682Z,2.83
2017-07-22T01:56:18.239Z,3.55
2017-07-22T01:58:45.823Z,7.03
2017-07-22T02:01:13.407Z,4.15
2017-07-22T02:03:40.968Z,7.35
2017-07-22T02:06:09.301Z,5.90
2017-07-22T02:08:36.854Z,3.58
2017-07-22T02:11:04.416Z,2.62
2017-07-22T02:13:32.143Z,3.83
2017-07-22T02:15:59.694Z,2.78
2017-07-22T02:18:27.261Z,5.47
2017-07-22T02:20:54.976Z,4.12
2017-07-22T02:23:22.530Z,3.30
2017-07-22T02:25:50.087Z,3.28
2017-07-22T02:28:17.807Z,3.62
2017-07-22T02:30:45.346Z,3.30
2017-07-22T02:33:12.891Z,5.25
2017-07-22T02:35:40.472Z,6.68
2017-07-22T02:38:08.032Z,3.50
2017-07-22T02:40:35.590Z,2.78
2017-07-22T02:43:03.357Z,3.17
2017-07-22T02:45:30.917Z,3.03
2017-07-22T02:47:58.503Z,4.57
2017-07-22T02:50:26.984Z,3.15
2017-07-22T02:52:55.296Z,4.75
2017-07-22T02:55:22.855Z,3.22
2017-07-22T02:57:50.458Z,4.10
2017-07-22T03:00:18.043Z,3.28
2017-07-22T03:02:46.371Z,4.53
2017-07-22T03:05:14.155Z,5.07
2017-07-22T03:07:41.715Z,3.55
2017-07-22T03:10:09.271Z,6.50
2017-07-22T03:12:37.115Z,6.55
2017-07-22T03:15:04.704Z,4.47
2017-07-22T03:17:32.252Z,3.67
2017-07-22T03:20:00.077Z,4.35
2017-07-22T03:22:27.636Z,5.35
2017-07-22T03:24:55.175Z,4.93
2017-07-22T03:27:23.520Z,6.68
2017-07-22T03:29:51.081Z,4.03
2017-07-22T03:32:18.639Z,3.83
2017-07-22T03:34:46.226Z,7.35
2017-07-22T03:37:16.895Z,3.40
2017-07-22T03:39:44.452Z,6.32
2017-07-22T03:42:12.060Z,3.00
2017-07-22T03:44:40.519Z,3.70
2017-07-22T03:47:08.135Z,4.30
2017-07-22T03:49:35.815Z,5.37
2017-07-22T03:52:03.366Z,2.90
2017-07-22T03:54:30.924Z,4.47
2017-07-22T03:56:58.653Z,6.12
2017-07-22T03:59:26.202Z,4.47
2017-07-22T04:01:53.752Z,4.30
2017-07-22T04:04:21.469Z,3.65
2017-07-22T04:06:49.030Z,3.40
2017-07-22T04:09:16.589Z,2.78
2017-07-22T04:11:44.224Z,8.38
2017-07-22T04:14:11.779Z,5.93
2017-07-22T04:16:39.334Z,3.20
2017-07-22T04:19:06.932Z,4.57
2017-07-22T04:21:34.496Z,6.82
2017-07-22T04:24:02.056Z,4.55
2017-07-22T04:26:29.794Z,4.80
2017-07-22T04:28:57.365Z,2.87
2017-07-22T04:31:24.949Z,3.53
2017-07-22T04:33:52.708Z,3.10
2017-07-22T04:36:20.273Z,3.60
2017-07-22T04:38:47.835Z,3.05
2017-07-22T04:41:15.709Z,4.10
2017-07-22T04:43:43.262Z,6.32
2017-07-22T04:46:10.824Z,4.25
2017-07-22T04:48:38.419Z,5.53
2017-07-22T04:51:05.979Z,4.85
2017-07-22T04:53:34.290Z,3.22
2017-07-22T04:56:02.310Z,3.97
2017-07-22T04:58:29.859Z,3.62
2017-07-22T05:00:57.418Z,6.93
2017-07-22T05:03:25.112Z,7.00
2017-07-22T05:05:52.674Z,3.90
2017-07-22T05:08:20.235Z,5.43
2017-07-22T05:10:47.850Z,3.83
2017-07-22T05:13:15.407Z,6.12
2017-07-22T05:15:42.960Z,3.20
2017-07-22T05:18:10.715Z,4.60
2017-07-22T05:20:38.263Z,7.37
2017-07-22T05:23:05.826Z,3.80
2017-07-22T05:25:33.512Z,4.32
2017-07-22T05:28:01.070Z,4.95
2017-07-22T05:30:28.629Z,3.67
2017-07-22T05:32:56.236Z,3.97
2017-07-22T05:35:23.795Z,3.28
2017-07-22T05:37:51.363Z,4.03
2017-07-22T05:40:19.079Z,4.62
2017-07-22T05:42:46.634Z,3.87
2017-07-22T05:45:14.243Z,3.80
2017-07-22T05:47:41.967Z,3.95
2017-07-22T05:50:09.516Z,7.25
2017-07-22T05:52:37.093Z,3.78
2017-07-22T05:55:05.616Z,4.78
2017-07-22T05:57:33.176Z,4.03
2017-07-22T06:00:00.723Z,3.25
2017-07-22T06:02:28.363Z,5.12
2017-07-22T06:04:56.679Z,6.17
2017-07-22T06:07:24.258Z,3.92
2017-07-22T06:09:51.943Z,4.40
2017-07-22T06:12:19.499Z,5.23
2017-07-22T06:14:47.056Z,3.92
2017-07-22T06:17:14.732Z,9.35
2017-07-22T06:19:42.293Z,3.72
2017-07-22T06:22:09.849Z,8.27
2017-07-22T06:24:37.723Z,4.07
2017-07-22T06:27:06.044Z,3.55
2017-07-22T06:29:33.609Z,3.50
2017-07-22T06:32:01.493Z,4.28
2017-07-22T06:34:29.076Z,5.25
2017-07-22T06:36:57.414Z,4.35
2017-07-22T06:39:25.220Z,3.40
2017-07-22T06:41:52.767Z,3.87
2017-07-22T06:44:20.315Z,4.30
2017-07-22T06:46:47.911Z,5.80
2017-07-22T06:49:16.239Z,5.20
2017-07-22T06:51:43.803Z,3.57
2017-07-22T06:54:11.430Z,4.23
2017-07-22T06:56:38.995Z,4.03
2017-07-22T06:59:06.551Z,4.40
2017-07-22T07:01:34.374Z,3.70
2017-07-22T07:04:01.923Z,5.87
2017-07-22T07:06:29.467Z,4.60
2017-07-22T07:08:57.347Z,4.10
2017-07-22T07:11:24.907Z,7.77
2017-07-22T07:13:52.463Z,4.60
2017-07-22T07:16:20.143Z,4.33
2017-07-22T07:18:47.696Z,5.07
2017-07-22T07:21:15.253Z,4.83
2017-07-22T07:23:43.225Z,5.33
2017-07-22T07:26:10.786Z,7.00
2017-07-22T07:28:38.976Z,5.60
2017-07-22T07:31:06.727Z,5.17
2017-07-22T07:33:35.073Z,5.57
2017-07-22T07:36:02.632Z,5.10
2017-07-22T07:38:30.403Z,5.60
2017-07-22T07:40:57.951Z,5.80
2017-07-22T07:43:25.511Z,6.93
2017-07-22T07:45:53.123Z,8.20
2017-07-22T07:48:21.435Z,7.40
2017-07-22T07:50:49.009Z,5.23
2017-07-22T07:53:16.802Z,6.07
2017-07-22T07:55:44.364Z,6.07
2017-07-22T07:58:11.919Z,7.00
2017-07-22T08:00:39.904Z,27.00
2017-07-22T08:03:07.450Z,8.60
2017-07-22T08:05:35.070Z,7.63
2017-07-22T08:08:02.763Z,10.90
2017-07-22T08:10:30.321Z,6.17
2017-07-22T08:12:57.879Z,6.97
2017-07-22T08:15:25.493Z,9.03
2017-07-22T08:17:53.056Z,6.50
2017-07-22T08:20:20.612Z,7.23
2017-07-22T08:22:48.196Z,6.83
2017-07-22T08:25:15.763Z,7.40
2017-07-22T08:27:43.335Z,6.80
2017-07-22T08:30:11.323Z,7.07
2017-07-22T08:32:39.655Z,6.87
2017-07-22T08:35:07.215Z,6.97
2017-07-22T08:37:34.793Z,8.20
2017-07-22T08:40:02.371Z,7.03
2017-07-22T08:42:29.940Z,7.27
2017-07-22T08:44:57.584Z,7.73
2017-07-22T08:47:26.377Z,8.07
2017-07-22T08:49:53.935Z,6.90
2017-07-22T08:52:21.628Z,7.93
2017-07-22T08:54:49.215Z,7.83
2017-07-22T08:57:16.763Z,7.60
2017-07-22T08:59:44.649Z,9.40
2017-07-22T09:02:12.210Z,7.07
2017-07-22T09:04:39.773Z,8.77
2017-07-22T09:07:07.378Z,9.17
2017-07-22T09:09:34.973Z,9.30
2017-07-22T09:12:02.538Z,9.70
2017-07-22T09:14:30.276Z,9.87
2017-07-22T09:16:57.897Z,9.20
2017-07-22T09:19:25.488Z,9.83
2017-07-22T09:21:53.429Z,9.60
2017-07-22T09:24:21.038Z,10.03
2017-07-22T09:26:48.682Z,10.33
2017-07-22T09:29:17.107Z,12.17
2017-07-22T09:31:44.736Z,9.83
2017-07-22T09:34:12.369Z,11.47
2017-07-22T09:36:40.938Z,11.23
2017-07-22T09:39:08.520Z,9.67
2017-07-22T09:41:36.883Z,15.73
2017-07-22T09:44:04.637Z,11.77
2017-07-22T09:46:32.279Z,12.20
2017-07-22T09:48:59.860Z,12.00
2017-07-22T09:51:27.589Z,11.57
2017-07-22T09:53:55.156Z,11.73
2017-07-22T09:56:22.719Z,11.40
2017-07-22T09:58:50.452Z,12.33
2017-07-22T10:01:18.013Z,12.00
2017-07-22T10:03:45.609Z,11.10
2017-07-22T10:06:13.333Z,11.07
2017-07-22T10:08:40.904Z,13.13
2017-07-22T10:11:08.467Z,12.10
2017-07-22T10:13:36.221Z,12.77
2017-07-22T10:16:03.808Z,12.60
2017-07-22T10:18:31.418Z,12.20
2017-07-22T10:20:59.926Z,12.30
2017-07-22T10:23:27.496Z,12.43
2017-07-22T10:25:55.095Z,12.37
2017-07-22T10:28:22.710Z,12.20
2017-07-22T10:30:50.280Z,12.30
2017-07-22T10:33:17.839Z,12.87
2017-07-22T10:35:45.613Z,13.47
2017-07-22T10:38:13.182Z,13.97
2017-07-22T10:40:40.770Z,13.60
2017-07-22T10:43:08.658Z,14.53
2017-07-22T10:45:36.259Z,14.23
2017-07-22T10:48:03.820Z,14.07
2017-07-22T10:50:31.827Z,14.77
2017-07-22T10:53:00.166Z,14.80
2017-07-22T10:55:27.764Z,15.57
2017-07-22T10:57:55.488Z,16.17
2017-07-22T11:00:24.261Z,15.20
2017-07-22T11:02:51.877Z,14.47
2017-07-22T11:05:20.454Z,14.60
2017-07-22T11:07:48.008Z,15.57
2017-07-22T11:10:15.571Z,15.50
2017-07-22T11:12:43.178Z,17.37
2017-07-22T11:15:10.751Z,15.60
2017-07-22T11:17:38.315Z,15.80
2017-07-22T11:20:06.002Z,15.30
2017-07-22T11:22:33.647Z,17.10
2017-07-22T11:25:01.204Z,15.87
2017-07-22T11:27:28.836Z,15.93
2017-07-22T11:29:56.417Z,15.40
2017-07-22T11:32:23.975Z,16.00
2017-07-22T11:34:51.876Z,15.30
2017-07-22T11:37:19.439Z,15.03
2017-07-22T11:39:47.084Z,14.27
2017-07-22T11:42:14.704Z,16.07
2017-07-22T11:44:42.322Z,16.50
2017-07-22T11:47:09.878Z,15.00
2017-07-22T11:49:37.864Z,16.23
2017-07-22T11:52:06.347Z,14.70
2017-07-22T11:54:33.918Z,13.50
2017-07-22T11:57:01.631Z,15.03
2017-07-22T11:59:29.190Z,14.87
2017-07-22T12:01:56.788Z,15.53
2017-07-22T12:04:25.162Z,14.03
2017-07-22T12:06:53.494Z,14.47
2017-07-22T12:09:21.055Z,15.97
2017-07-22T12:11:48.634Z,12.50
2017-07-22T12:14:16.194Z,12.43
2017-07-22T12:16:43.751Z,14.57
2017-07-22T12:19:11.526Z,12.90
2017-07-22T12:21:39.085Z,14.30
2017-07-22T12:24:06.891Z,13.47
2017-07-22T12:26:34.590Z,12.37
2017-07-22T12:29:02.149Z,12.93
2017-07-22T12:31:29.711Z,12.10
2017-07-22T12:33:57.423Z,13.07
2017-07-22T12:36:24.983Z,13.47
2017-07-22T12:38:52.539Z,13.37
2017-07-22T12:41:20.151Z,14.33
2017-07-22T12:43:47.712Z,12.60
2017-07-22T12:46:15.270Z,13.60
2017-07-22T12:48:42.878Z,14.80
2017-07-22T12:51:10.451Z,13.77
2017-07-22T12:53:38.012Z,13.20
2017-07-22T12:56:05.710Z,12.60
2017-07-22T12:58:33.285Z,14.37
2017-07-22T13:01:00.840Z,11.93
2017-07-22T13:03:28.606Z,13.13
2017-07-22T13:05:56.205Z,12.87
2017-07-22T13:08:23.766Z,13.23
2017-07-22T13:10:51.494Z,12.63
2017-07-22T13:13:19.061Z,12.37
2017-07-22T13:15:47.498Z,11.63
2017-07-22T13:18:15.215Z,12.23
2017-07-22T13:20:43.537Z,12.57
2017-07-22T13:23:11.089Z,13.23
2017-07-22T13:25:38.851Z,13.37
2017-07-22T13:28:06.408Z,13.80
2017-07-22T13:30:33.978Z,13.07
2017-07-22T13:33:01.748Z,11.70
2017-07-22T13:35:29.325Z,12.50
2017-07-22T13:37:56.918Z,12.03
2017-07-22T13:40:24.658Z,12.23
2017-07-22T13:42:52.226Z,11.27
2017-07-22T13:45:19.866Z,11.70
2017-07-22T13:47:47.605Z,12.70
2017-07-22T13:50:15.199Z,11.60
2017-07-22T13:52:42.791Z,12.03
2017-07-22T13:55:10.556Z,10.80
2017-07-22T13:57:38.124Z,12.33
2017-07-22T14:00:05.701Z,12.00
2017-07-22T14:02:33.633Z,12.50
2017-07-22T14:05:02.076Z,13.43
2017-07-22T14:07:29.629Z,12.17
2017-07-22T14:09:57.224Z,13.47
2017-07-22T14:12:24.783Z,13.43
2017-07-22T14:14:52.384Z,12.83
2017-07-22T14:17:20.127Z,12.10
2017-07-22T14:19:47.705Z,12.47
2017-07-22T14:22:15.272Z,12.03
2017-07-22T14:24:42.999Z,11.43
2017-07-22T14:27:10.555Z,12.43
2017-07-22T14:29:38.137Z,12.60
2017-07-22T14:32:05.809Z,13.13
2017-07-22T14:34:33.499Z,11.83
2017-07-22T14:37:01.117Z,13.23
2017-07-22T14:39:28.808Z,12.90
2017-07-22T14:41:56.372Z,12.60
2017-07-22T14:44:24.031Z,13.30
2017-07-22T14:46:51.732Z,16.47
2017-07-22T14:49:19.342Z,12.57
2017-07-22T14:51:46.911Z,12.93
2017-07-22T14:54:14.807Z,13.17
2017-07-22T14:56:42.443Z,12.40
2017-07-22T14:59:10.081Z,12.23
2017-07-22T15:01:37.764Z,12.60
2017-07-22T15:04:05.374Z,12.70
2017-07-22T15:06:32.939Z,10.97
2017-07-22T15:09:01.516Z,12.00
2017-07-22T15:11:29.887Z,11.20
2017-07-22T15:13:58.692Z,11.13
2017-07-22T15:16:27.075Z,10.93
2017-07-22T15:18:54.655Z,11.07
2017-07-22T15:21:22.224Z,10.90
2017-07-22T15:23:49.945Z,10.23
2017-07-22T15:26:17.544Z,9.03
2017-07-22T15:28:45.108Z,12.60
2017-07-22T15:31:12.773Z,10.13
2017-07-22T15:33:40.418Z,10.37
2017-07-22T15:36:07.971Z,11.27
2017-07-22T15:38:35.817Z,10.70
2017-07-22T15:41:03.379Z,13.30
2017-07-22T15:43:30.955Z,10.33
2017-07-22T15:45:58.546Z,11.83
2017-07-22T15:48:26.096Z,11.70
2017-07-22T15:50:53.656Z,11.60
2017-07-22T15:53:21.372Z,10.63
2017-07-22T15:55:49.707Z,10.73
2017-07-22T15:58:17.275Z,10.00
2017-07-22T16:00:45.240Z,10.80
2017-07-22T16:03:12.785Z,10.53
2017-07-22T16:05:40.337Z,10.60
2017-07-22T16:08:07.949Z,10.43
2017-07-22T16:10:35.690Z,10.50
2017-07-22T16:13:03.246Z,10.80
2017-07-22T16:15:30.983Z,11.50
2017-07-22T16:17:58.544Z,9.87
2017-07-22T16:20:26.708Z,10.17
2017-07-22T16:22:54.427Z,11.60
2017-07-22T16:25:22.787Z,10.70
2017-07-22T16:27:50.348Z,11.70
2017-07-22T16:30:18.110Z,10.60
2017-07-22T16:32:45.685Z,11.23
2017-07-22T16:35:13.239Z,10.60
2017-07-22T16:37:40.841Z,10.13
2017-07-22T16:40:08.399Z,11.90
2017-07-22T16:42:35.949Z,13.80
2017-07-22T16:45:03.672Z,10.13
2017-07-22T16:47:31.235Z,15.47
2017-07-22T16:49:58.819Z,10.00
2017-07-22T16:52:27.310Z,12.20
2017-07-22T16:54:54.878Z,11.40
2017-07-22T16:57:22.447Z,10.90
2017-07-22T16:59:50.123Z,9.93
2017-07-22T17:02:17.688Z,10.97
2017-07-22T17:04:45.267Z,11.13
2017-07-22T17:07:12.968Z,11.77
2017-07-22T17:09:40.536Z,10.90
2017-07-22T17:12:08.094Z,10.27
2017-07-22T17:14:36.035Z,11.67
2017-07-22T17:17:04.359Z,11.40
2017-07-22T17:19:31.928Z,12.07
2017-07-22T17:21:59.533Z,10.77
2017-07-22T17:24:27.123Z,13.77
2017-07-22T17:26:54.687Z,10.87
2017-07-22T17:29:22.278Z,11.80
2017-07-22T17:31:49.826Z,11.97
2017-07-22T17:34:17.386Z,11.53
2017-07-22T17:36:45.121Z,12.60
2017-07-22T17:39:12.674Z,11.90
2017-07-22T17:41:40.232Z,11.60
2017-07-22T17:44:07.841Z,12.83
2017-07-22T17:46:35.419Z,11.20
2017-07-22T17:49:02.983Z,11.13
2017-07-22T17:51:31.709Z,14.30
2017-07-22T17:53:59.274Z,12.20
2017-07-22T17:56:26.826Z,11.73
2017-07-22T17:58:54.578Z,10.97
2017-07-22T18:01:22.151Z,10.57
2017-07-22T18:03:49.717Z,10.33
2017-07-22T18:06:17.324Z,11.00
2017-07-22T18:08:44.913Z,13.53
2017-07-22T18:11:13.227Z,10.67
2017-07-22T18:13:41.305Z,11.50
2017-07-22T18:16:09.527Z,10.33
2017-07-22T18:18:37.859Z,10.50
2017-07-22T18:21:05.532Z,8.83
2017-07-22T18:23:33.094Z,9.50
2017-07-22T18:26:00.652Z,10.27
2017-07-22T18:28:29.338Z,9.63
2017-07-22T18:30:58.101Z,9.70
2017-07-22T18:33:25.650Z,9.40
2017-07-22T18:35:53.370Z,9.53
2017-07-22T18:38:21.730Z,9.47
2017-07-22T18:40:49.305Z,9.97
2017-07-22T18:43:16.951Z,9.13
2017-07-22T18:45:44.511Z,9.63
2017-07-22T18:48:12.059Z,9.40
2017-07-22T18:50:39.802Z,8.47
2017-07-22T18:53:07.346Z,9.20
2017-07-22T18:55:35.071Z,9.13
2017-07-22T18:58:02.675Z,9.67
2017-07-22T19:00:30.299Z,8.70
2017-07-22T19:02:58.615Z,9.87
2017-07-22T19:05:26.516Z,8.90
2017-07-22T19:07:54.079Z,11.57
2017-07-22T19:10:21.665Z,9.13
2017-07-22T19:12:50.168Z,8.07
2017-07-22T19:15:17.719Z,8.27
2017-07-22T19:17:45.286Z,7.80
2017-07-22T19:20:13.114Z,8.07
2017-07-22T19:22:40.672Z,7.83
2017-07-22T19:25:09.150Z,7.30
2017-07-22T19:27:37.224Z,7.57
2017-07-22T19:30:04.787Z,8.50
2017-07-22T19:32:32.418Z,6.90
2017-07-22T19:35:00.017Z,8.43
2017-07-22T19:37:27.563Z,8.30
2017-07-22T19:39:55.242Z,7.40
2017-07-22T19:42:22.837Z,8.80
2017-07-22T19:44:50.390Z,8.73
2017-07-22T19:47:17.945Z,8.03
2017-07-22T19:49:45.599Z,8.33
2017-07-22T19:52:13.162Z,8.53
2017-07-22T19:54:40.717Z,6.53
2017-07-22T19:57:08.670Z,7.93
2017-07-22T19:59:36.326Z,8.70
2017-07-22T20:02:04.674Z,7.87
2017-07-22T20:04:32.279Z,7.37
2017-07-22T20:06:59.840Z,7.70
2017-07-22T20:09:27.397Z,8.90
2017-07-22T20:11:55.327Z,8.10
2017-07-22T20:14:22.882Z,8.67
2017-07-22T20:16:50.537Z,9.15
2017-07-22T20:19:18.143Z,9.20
2017-07-22T20:21:46.456Z,9.50
2017-07-22T20:24:14.065Z,9.38
2017-07-22T20:26:41.788Z,9.93
2017-07-22T20:29:09.372Z,10.57
2017-07-22T20:31:36.981Z,8.93
2017-07-22T20:34:05.603Z,10.48
2017-07-22T20:36:33.171Z,10.00
2017-07-22T20:39:00.740Z,10.00
2017-07-22T20:41:28.375Z,10.70
2017-07-22T20:43:55.945Z,9.20
2017-07-22T20:46:23.491Z,9.50
2017-07-22T20:48:51.201Z,10.30
2017-07-22T20:51:19.542Z,10.73
2017-07-22T20:53:47.098Z,10.60
2017-07-22T20:56:14.812Z,11.25
2017-07-22T20:58:42.373Z,11.50
2017-07-22T21:01:09.937Z,12.30
2017-07-22T21:03:37.659Z,12.23
2017-07-22T21:06:05.246Z,10.77
2017-07-22T21:08:32.815Z,13.02
2017-07-22T21:11:00.548Z,15.10
2017-07-22T21:13:28.159Z,12.02
2017-07-22T21:15:55.750Z,12.37
2017-07-22T21:18:23.739Z,13.90
2017-07-22T21:20:52.080Z,14.38
2017-07-22T21:23:19.760Z,11.60
2017-07-22T21:25:47.480Z,12.57
2017-07-22T21:28:15.064Z,13.90
2017-07-22T21:30:42.620Z,14.82
2017-07-22T21:33:10.249Z,13.00
2017-07-22T21:35:37.828Z,15.45
2017-07-22T21:38:05.419Z,15.30
2017-07-22T21:40:33.028Z,15.25
2017-07-22T21:43:00.632Z,15.70
2017-07-22T21:45:28.187Z,15.93
2017-07-22T21:47:55.956Z,14.52
2017-07-22T21:50:23.508Z,16.92
2017-07-22T21:52:51.072Z,15.30
2017-07-22T21:55:18.766Z,14.37
2017-07-22T21:57:46.362Z,14.93
2017-07-22T22:00:13.943Z,15.18
2017-07-22T22:02:41.688Z,14.63
2017-07-22T22:05:10.207Z,18.03
2017-07-22T22:07:37.783Z,14.67
2017-07-22T22:10:05.538Z,16.20
2017-07-22T22:12:33.128Z,18.52
2017-07-22T22:15:00.689Z,16.70
2017-07-22T22:17:28.320Z,17.23
2017-07-22T22:19:55.882Z,17.60
2017-07-22T22:22:23.440Z,21.25
2017-07-22T22:24:51.135Z,20.77
2017-07-22T22:27:18.703Z,17.83
2017-07-22T22:29:46.279Z,17.80
2017-07-22T22:32:13.882Z,24.80
2017-07-22T22:34:41.447Z,17.80
2017-07-22T22:37:09.010Z,17.65
2017-07-22T22:39:37.500Z,18.40
2017-07-22T22:42:05.885Z,18.53
2017-07-22T22:44:34.265Z,19.30
2017-07-22T22:47:02.014Z,20.15
2017-07-22T22:49:30.385Z,27.30
2017-07-22T22:51:58.773Z,18.10
2017-07-22T22:54:26.420Z,19.40
2017-07-22T22:56:54.791Z,20.63
2017-07-22T22:59:22.404Z,19.50
2017-07-22T23:01:50.201Z,17.70
2017-07-22T23:04:17.805Z,18.55
2017-07-22T23:06:45.412Z,19.60
2017-07-22T23:09:13.219Z,22.10
2017-07-22T23:11:41.584Z,28.40
2017-07-22T23:14:09.144Z,24.40
2017-07-22T23:16:36.919Z,19.10
2017-07-22T23:19:05.291Z,22.33
2017-07-22T23:21:32.851Z,21.60
2017-07-22T23:24:00.551Z,21.05
2017-07-22T23:26:28.130Z,19.60
2017-07-22T23:28:55.688Z,21.33
2017-07-22T23:31:23.406Z,18.80
2017-07-22T23:33:50.980Z,23.58
2017-07-22T23:36:18.576Z,25.58
2017-07-22T23:38:46.194Z,20.95
2017-07-22T23:41:13.776Z,21.33
2017-07-22T23:43:41.351Z,24.20
2017-07-22T23:46:09.110Z,21.52
2017-07-22T23:48:36.681Z,26.62
2017-07-22T23:51:04.245Z,22.67
2017-07-22T23:53:31.982Z,19.83
2017-07-22T23:55:59.563Z,21.23
2017-07-22T23:58:27.123Z,22.80
